Westchester County Airport
KHPN : rendu visible

Aérodrome :











RETROUVEZ-NOUS SUR...

 
LOGIN :

S'inscrire | Disclaimer

   EN    FR    IT 

 









Légende :    VFR   VFR Marginal   IFR   IFR Intensif   IFR Très Intensif
Visi : 
Plafond : 
>= 8 km
>= 3000ft
5 à 8 km
1000 à 3000 ft
1500m à 5 km
500 à 1000 ft
800 à 1500m
200 à 500 ft
< 800m
< 200 ft
Symboles :   Orages  Brouillard  Fortes neiges  Fortes précipitations  Vent > 20 kt






- Altitude de l'aérodrome : 439 ft
- Code IATA : HPN


KHPN - Westchester County

DERNIER METAR :
  • 191156Z 27004KT 10SM CLR 04/02 A3006 RMK AO2 SLP182 T00390022 10050 20017 53016 $

METARs EXPIRÉS :
  • 191056Z 00000KT 10SM CLR 02/01 A3004 RMK AO2 SLP176 T00220006 $
  • 190956Z 00000KT 10SM CLR 03/02 A3001 RMK AO2 SLP168 T00280017 $

TAF KHPN
Valide du 19 à 12h jusqu'au 20 à 12h UTC


191123Z 1912/2012 VRB04KT P6SM SKC
FM191500 29006KT P6SM FEW250
FM192000 25005KT P6SM FEW250
FM200000 VRB03KT P6SM BKN250 AMD NOT SKED



MET'MAP, la Météo Aéronautique d'un coup d'oeil ! - Copyright ORBIFLY Décembre 2007 - Disclaimer

ORBIFLY MET'MAP TEAM :

Programmation & Développement : Alexandra Zaïnal
Conception & Développement : Baudouin d'Aumeries
Co-Programmation & Développement : Marc-Olivier Méhu
Soutien technique & logistique : Manuel Goepfert

Contact : metmap@orbifly.com




SOURCES & CREDITS :

   NOAA       Earth
Advisory